createdAt,value
2024-01-17T00:02:03.062Z,84.49
2024-01-17T00:04:19.993Z,84.57
2024-01-17T00:06:36.930Z,84.49
2024-01-17T00:08:53.884Z,84.69
2024-01-17T00:11:10.881Z,84.54
2024-01-17T00:13:27.844Z,84.48
2024-01-17T00:15:44.723Z,84.52
2024-01-17T00:18:01.802Z,84.51
2024-01-17T00:20:18.789Z,84.41
2024-01-17T00:22:35.780Z,84.48
2024-01-17T00:24:52.891Z,84.38
2024-01-17T00:27:10.062Z,84.67
2024-01-17T00:29:27.057Z,84.36
2024-01-17T00:31:44.088Z,84.06
2024-01-17T00:34:01.276Z,84.23
2024-01-17T00:36:18.496Z,84.30
2024-01-17T00:38:35.483Z,84.25
2024-01-17T00:40:52.511Z,83.98
2024-01-17T00:43:09.490Z,83.59
2024-01-17T00:45:26.455Z,83.60
2024-01-17T00:47:46.911Z,83.63
2024-01-17T00:50:03.993Z,83.72
2024-01-17T00:52:21.094Z,83.87
2024-01-17T00:54:38.030Z,84.08
2024-01-17T00:56:55.012Z,84.10
2024-01-17T00:59:12.037Z,84.28
2024-01-17T01:01:28.958Z,84.37
2024-01-17T01:03:47.782Z,84.33
2024-01-17T01:06:07.607Z,84.22
2024-01-17T01:08:24.791Z,83.88
2024-01-17T01:10:41.792Z,84.01
2024-01-17T01:12:58.717Z,84.03
2024-01-17T01:15:15.839Z,83.77
2024-01-17T01:17:32.906Z,83.69
2024-01-17T01:19:49.872Z,83.65
2024-01-17T01:22:06.841Z,83.80
2024-01-17T01:24:23.877Z,83.76
2024-01-17T01:26:42.869Z,83.97
2024-01-17T01:29:01.296Z,84.07
2024-01-17T01:31:18.229Z,84.00
2024-01-17T01:33:35.309Z,83.96
2024-01-17T01:35:52.396Z,83.82
2024-01-17T01:38:09.357Z,84.06
2024-01-17T01:40:26.360Z,83.99
2024-01-17T01:42:43.252Z,84.07
2024-01-17T01:45:00.386Z,83.97
2024-01-17T01:47:17.478Z,83.82
2024-01-17T01:49:34.456Z,83.76
2024-01-17T01:51:51.372Z,83.91
2024-01-17T01:54:08.463Z,84.00
2024-01-17T01:56:28.703Z,84.22
2024-01-17T01:58:45.678Z,84.21
2024-01-17T02:01:02.639Z,84.34
2024-01-17T02:03:19.835Z,84.54
2024-01-17T02:05:36.937Z,84.75
2024-01-17T02:07:53.886Z,84.80
2024-01-17T02:10:10.851Z,84.71
2024-01-17T02:12:27.815Z,84.85
2024-01-17T02:14:44.787Z,84.67
2024-01-17T02:17:01.729Z,84.64
2024-01-17T02:19:18.680Z,84.52
2024-01-17T02:21:35.704Z,84.63
2024-01-17T02:23:52.742Z,84.45
2024-01-17T02:26:09.684Z,84.12
2024-01-17T02:28:26.571Z,83.82
2024-01-17T02:30:43.655Z,83.64
2024-01-17T02:33:00.924Z,83.64
2024-01-17T02:35:18.052Z,83.53
2024-01-17T02:37:35.012Z,83.82
2024-01-17T02:39:53.397Z,84.45
2024-01-17T02:42:14.515Z,84.45
2024-01-17T02:44:34.278Z,84.41
2024-01-17T02:46:54.588Z,84.31
2024-01-17T02:49:11.732Z,84.44
2024-01-17T02:51:28.674Z,84.52
2024-01-17T02:53:51.405Z,84.23
2024-01-17T02:56:08.381Z,84.38
2024-01-17T02:58:25.325Z,84.25
2024-01-17T03:00:42.692Z,84.26
2024-01-17T03:02:59.851Z,84.21
2024-01-17T03:05:16.914Z,84.24
2024-01-17T03:07:33.966Z,84.44
2024-01-17T03:09:51.135Z,84.83
2024-01-17T03:12:08.158Z,84.62
2024-01-17T03:14:25.187Z,84.76
2024-01-17T03:16:43.519Z,84.68
2024-01-17T03:19:00.718Z,84.50
2024-01-17T03:21:17.921Z,84.48
2024-01-17T03:23:34.878Z,84.47
2024-01-17T03:25:51.836Z,84.59
2024-01-17T03:28:08.760Z,84.33
2024-01-17T03:30:25.801Z,84.27
2024-01-17T03:32:42.842Z,84.42
2024-01-17T03:34:59.813Z,84.63
2024-01-17T03:37:16.746Z,84.41
2024-01-17T03:39:33.632Z,84.71
2024-01-17T03:41:50.558Z,84.53
2024-01-17T03:44:07.527Z,84.53
2024-01-17T03:46:24.480Z,84.92
2024-01-17T03:48:41.545Z,84.45
2024-01-17T03:50:58.502Z,84.58
2024-01-17T03:53:15.471Z,84.75
2024-01-17T03:55:32.384Z,84.79
2024-01-17T03:57:49.259Z,85.34
2024-01-17T04:00:06.503Z,85.11
2024-01-17T04:02:23.525Z,85.16
2024-01-17T04:04:40.514Z,85.31
2024-01-17T04:06:57.591Z,85.16
2024-01-17T04:09:15.670Z,85.33
2024-01-17T04:11:32.686Z,85.23
2024-01-17T04:13:49.613Z,85.29
2024-01-17T04:16:06.529Z,85.03
2024-01-17T04:18:23.617Z,84.49
2024-01-17T04:20:40.678Z,84.73
2024-01-17T04:22:57.684Z,84.87
2024-01-17T04:25:14.611Z,85.08
2024-01-17T04:27:37.152Z,85.21
2024-01-17T04:29:57.795Z,84.99
2024-01-17T04:32:14.794Z,85.10
2024-01-17T04:34:31.667Z,84.97
2024-01-17T04:36:48.615Z,85.38
2024-01-17T04:39:05.642Z,85.54
2024-01-17T04:41:22.659Z,85.64
2024-01-17T04:43:39.592Z,85.78
2024-01-17T04:45:56.505Z,86.03
2024-01-17T04:48:13.656Z,86.03
2024-01-17T04:50:30.795Z,86.34
2024-01-17T04:52:47.873Z,85.95
2024-01-17T04:55:04.753Z,86.02
2024-01-17T04:57:21.786Z,85.87
2024-01-17T04:59:39.381Z,85.59
2024-01-17T05:01:56.347Z,85.74
2024-01-17T05:04:13.412Z,85.81
2024-01-17T05:06:30.561Z,86.01
2024-01-17T05:08:47.659Z,85.75
2024-01-17T05:11:04.748Z,85.70
2024-01-17T05:13:23.066Z,85.70
2024-01-17T05:15:40.079Z,85.74
2024-01-17T05:17:57.195Z,85.79
2024-01-17T05:20:14.237Z,85.72
2024-01-17T05:22:31.184Z,86.10
2024-01-17T05:24:48.180Z,85.86
2024-01-17T05:27:05.273Z,85.57
2024-01-17T05:29:22.438Z,85.50
2024-01-17T05:31:39.388Z,85.43
2024-01-17T05:33:56.667Z,85.50
2024-01-17T05:36:14.008Z,85.43
2024-01-17T05:38:31.066Z,85.54
2024-01-17T05:40:48.037Z,85.41
2024-01-17T05:43:05.469Z,85.41
2024-01-17T05:45:22.660Z,85.52
2024-01-17T05:47:39.744Z,85.55
2024-01-17T05:49:56.796Z,85.60
2024-01-17T05:52:13.769Z,85.54
2024-01-17T05:54:30.824Z,85.43
2024-01-17T05:56:47.897Z,85.43
2024-01-17T05:59:04.807Z,85.40
2024-01-17T06:01:21.788Z,85.61
2024-01-17T06:03:38.848Z,85.83
2024-01-17T06:05:55.997Z,85.71
2024-01-17T06:08:13.085Z,85.74
2024-01-17T06:10:30.038Z,85.42
2024-01-17T06:12:46.978Z,85.61
2024-01-17T06:15:04.043Z,84.99
2024-01-17T06:17:21.014Z,85.12
2024-01-17T06:19:38.107Z,85.17
2024-01-17T06:21:55.099Z,85.32
2024-01-17T06:24:12.057Z,85.26
2024-01-17T06:26:29.013Z,85.45
2024-01-17T06:28:45.933Z,85.32
2024-01-17T06:31:02.857Z,85.88
2024-01-17T06:33:20.080Z,85.50
2024-01-17T06:35:37.193Z,85.56
2024-01-17T06:37:54.146Z,85.52
2024-01-17T06:40:11.100Z,85.69
2024-01-17T06:42:28.142Z,85.43
2024-01-17T06:44:45.103Z,85.51
2024-01-17T06:47:02.287Z,85.58
2024-01-17T06:49:19.293Z,85.85
2024-01-17T06:51:36.308Z,85.78
2024-01-17T06:53:53.295Z,85.62
2024-01-17T06:56:10.307Z,85.83
2024-01-17T06:58:27.263Z,86.27
2024-01-17T07:00:44.207Z,86.34
2024-01-17T07:03:01.282Z,86.26
2024-01-17T07:05:18.295Z,86.53
2024-01-17T07:07:35.298Z,86.51
2024-01-17T07:09:52.209Z,86.51
2024-01-17T07:12:09.212Z,86.73
2024-01-17T07:14:26.236Z,86.61
2024-01-17T07:16:43.213Z,86.83
2024-01-17T07:19:00.441Z,86.69
2024-01-17T07:21:17.582Z,86.68
2024-01-17T07:23:34.696Z,86.97
2024-01-17T07:25:51.676Z,86.95
2024-01-17T07:28:08.591Z,87.04
2024-01-17T07:30:25.622Z,87.12
2024-01-17T07:32:42.718Z,87.29
2024-01-17T07:35:00.286Z,87.13
2024-01-17T07:37:18.730Z,87.87
2024-01-17T07:39:36.964Z,87.14
2024-01-17T07:41:54.298Z,87.43
2024-01-17T07:44:11.193Z,87.40
2024-01-17T07:46:28.209Z,87.40
2024-01-17T07:48:45.873Z,87.21
2024-01-17T07:51:03.213Z,87.66
2024-01-17T07:53:20.202Z,87.49
2024-01-17T07:55:37.129Z,87.36
2024-01-17T07:57:54.002Z,87.48
2024-01-17T08:00:10.998Z,87.66
2024-01-17T08:02:28.110Z,87.62
2024-01-17T08:04:45.073Z,87.60
2024-01-17T08:07:02.013Z,87.95
2024-01-17T08:09:19.162Z,87.96
2024-01-17T08:11:36.172Z,88.08
2024-01-17T08:13:53.200Z,88.07
2024-01-17T08:16:10.241Z,88.61
2024-01-17T08:18:27.288Z,88.89
2024-01-17T08:20:44.484Z,88.78
2024-01-17T08:23:01.685Z,88.96
2024-01-17T08:25:18.964Z,88.90
2024-01-17T08:27:35.917Z,88.96
2024-01-17T08:29:52.920Z,89.36
2024-01-17T08:32:09.974Z,89.18
2024-01-17T08:34:27.151Z,88.71
2024-01-17T08:36:44.324Z,88.97
2024-01-17T08:39:01.291Z,88.08
2024-01-17T08:41:18.240Z,87.33
2024-01-17T08:43:35.246Z,87.71
2024-01-17T08:45:52.232Z,87.60
2024-01-17T08:48:09.690Z,87.85
2024-01-17T08:50:32.924Z,87.71
2024-01-17T08:52:49.902Z,87.11
2024-01-17T08:55:06.905Z,87.47
2024-01-17T08:57:23.852Z,86.74
2024-01-17T08:59:40.824Z,86.97
2024-01-17T09:01:57.788Z,87.25
2024-01-17T09:04:14.720Z,87.19
2024-01-17T09:06:31.751Z,86.94
2024-01-17T09:08:48.754Z,87.90
2024-01-17T09:11:05.873Z,87.87
2024-01-17T09:13:22.837Z,88.10
2024-01-17T09:15:39.766Z,87.75
2024-01-17T09:17:56.792Z,87.26
2024-01-17T09:20:13.892Z,87.77
2024-01-17T09:22:30.908Z,87.23
2024-01-17T09:24:47.873Z,87.45
2024-01-17T09:27:04.879Z,87.35
2024-01-17T09:29:21.876Z,88.20
2024-01-17T09:31:38.866Z,88.68
2024-01-17T09:33:55.947Z,87.11
2024-01-17T09:36:13.054Z,87.13
2024-01-17T09:38:32.410Z,87.50
2024-01-17T09:40:49.400Z,87.10
2024-01-17T09:43:12.170Z,86.77
2024-01-17T09:45:30.025Z,87.47
2024-01-17T09:47:47.004Z,87.89
2024-01-17T09:50:04.105Z,87.37
2024-01-17T09:52:21.099Z,88.02
2024-01-17T09:54:38.037Z,88.09
2024-01-17T09:56:55.053Z,87.98
2024-01-17T09:59:12.068Z,87.49
2024-01-17T10:01:29.030Z,87.83
2024-01-17T10:03:46.048Z,86.40
2024-01-17T10:06:03.308Z,87.91
2024-01-17T10:08:20.506Z,87.83
2024-01-17T10:10:37.399Z,88.32
2024-01-17T10:12:54.376Z,87.86
2024-01-17T10:15:11.371Z,88.23
2024-01-17T10:17:28.353Z,88.29
2024-01-17T10:19:45.336Z,87.74
2024-01-17T10:22:02.524Z,88.65
2024-01-17T10:24:19.486Z,87.96
2024-01-17T10:26:36.560Z,87.99
2024-01-17T10:28:53.556Z,88.30
2024-01-17T10:31:10.452Z,88.00
2024-01-17T10:33:27.570Z,88.91
2024-01-17T10:35:44.682Z,89.12
2024-01-17T10:38:01.655Z,88.76
2024-01-17T10:40:18.636Z,88.72
2024-01-17T10:42:35.549Z,88.10
2024-01-17T10:44:52.617Z,87.72
2024-01-17T10:47:11.561Z,87.41
2024-01-17T10:49:28.727Z,88.74
2024-01-17T10:51:45.684Z,88.24
2024-01-17T10:54:02.638Z,88.29
2024-01-17T10:56:19.625Z,88.63
2024-01-17T10:58:36.663Z,87.88
2024-01-17T11:00:53.618Z,88.04
2024-01-17T11:03:10.765Z,88.75
2024-01-17T11:05:27.919Z,87.95
2024-01-17T11:07:44.900Z,87.83
2024-01-17T11:10:01.854Z,87.84
2024-01-17T11:12:18.944Z,87.11
2024-01-17T11:14:35.937Z,87.71
2024-01-17T11:16:52.904Z,88.77
2024-01-17T11:19:10.060Z,89.31
2024-01-17T11:21:27.114Z,89.92
2024-01-17T11:23:44.092Z,89.28
2024-01-17T11:26:01.141Z,90.50
2024-01-17T11:28:18.060Z,90.30
2024-01-17T11:30:35.017Z,90.03
2024-01-17T11:32:52.078Z,90.86
2024-01-17T11:35:09.127Z,89.86
2024-01-17T11:37:26.028Z,89.92
2024-01-17T11:39:42.953Z,89.54
2024-01-17T11:42:00.034Z,89.96
2024-01-17T11:44:17.017Z,89.70
2024-01-17T11:46:33.950Z,90.25
2024-01-17T11:48:51.026Z,90.00
2024-01-17T11:51:08.200Z,89.95
2024-01-17T11:53:25.230Z,91.30
2024-01-17T11:55:42.161Z,91.39
2024-01-17T11:57:59.156Z,91.94
2024-01-17T12:00:16.195Z,91.93
2024-01-17T12:02:33.232Z,92.03
2024-01-17T12:04:50.188Z,91.57
2024-01-17T12:07:07.263Z,92.02
2024-01-17T12:09:26.884Z,92.64
2024-01-17T12:11:45.839Z,92.08
2024-01-17T12:14:02.782Z,91.99
2024-01-17T12:16:19.698Z,93.21
2024-01-17T12:18:36.798Z,92.44
2024-01-17T12:20:53.799Z,92.27
2024-01-17T12:23:10.737Z,93.15
2024-01-17T12:25:27.695Z,92.41
2024-01-17T12:27:44.609Z,93.38
2024-01-17T12:30:01.649Z,92.79
2024-01-17T12:32:18.651Z,93.32
2024-01-17T12:34:35.610Z,93.22
2024-01-17T12:36:52.563Z,93.74
2024-01-17T12:39:09.543Z,93.78
2024-01-17T12:41:26.617Z,93.08
2024-01-17T12:43:43.572Z,93.67
2024-01-17T12:46:00.493Z,93.04
2024-01-17T12:48:17.631Z,92.60
2024-01-17T12:50:37.774Z,92.15
2024-01-17T12:52:55.442Z,93.04
2024-01-17T12:55:12.468Z,92.71
2024-01-17T12:57:29.379Z,93.77
2024-01-17T12:59:46.374Z,93.05
2024-01-17T13:02:03.400Z,93.54
2024-01-17T13:04:20.310Z,93.85
2024-01-17T13:06:37.316Z,93.39
2024-01-17T13:08:54.364Z,94.30
2024-01-17T13:11:11.339Z,94.22
2024-01-17T13:13:28.252Z,93.71
2024-01-17T13:15:45.157Z,94.20
2024-01-17T13:18:02.218Z,94.03
2024-01-17T13:20:19.211Z,93.72
2024-01-17T13:22:36.174Z,93.85
2024-01-17T13:24:55.336Z,94.51
2024-01-17T13:27:13.633Z,94.63
2024-01-17T13:29:30.708Z,94.77
2024-01-17T13:31:47.598Z,95.00
2024-01-17T13:34:04.931Z,94.59
2024-01-17T13:36:22.043Z,95.15
2024-01-17T13:38:39.021Z,95.37
2024-01-17T13:40:59.067Z,94.67
2024-01-17T13:43:16.677Z,95.38
2024-01-17T13:45:33.692Z,95.27
2024-01-17T13:47:50.777Z,95.29
2024-01-17T13:50:07.809Z,95.05
2024-01-17T13:52:24.766Z,94.90
2024-01-17T13:54:41.692Z,95.33
2024-01-17T13:56:58.677Z,95.36
2024-01-17T13:59:15.582Z,95.59
2024-01-17T14:01:32.522Z,95.89
2024-01-17T14:03:49.504Z,95.21
2024-01-17T14:06:06.685Z,95.52
2024-01-17T14:08:23.736Z,95.24
2024-01-17T14:10:40.721Z,95.48
2024-01-17T14:12:57.602Z,95.72
2024-01-17T14:15:14.786Z,95.69
2024-01-17T14:17:31.863Z,95.57
2024-01-17T14:19:48.857Z,95.38
2024-01-17T14:22:05.824Z,95.14
2024-01-17T14:24:22.868Z,95.29
2024-01-17T14:26:42.247Z,95.02
2024-01-17T14:29:00.219Z,95.20
2024-01-17T14:31:17.169Z,95.54
2024-01-17T14:33:34.372Z,95.59
2024-01-17T14:35:51.546Z,95.52
2024-01-17T14:38:08.504Z,95.96
2024-01-17T14:40:25.422Z,95.92
2024-01-17T14:42:42.376Z,95.19
2024-01-17T14:44:59.447Z,95.73
2024-01-17T14:47:16.438Z,95.40
2024-01-17T14:49:33.422Z,96.28
2024-01-17T14:51:50.382Z,96.13
2024-01-17T14:54:07.383Z,96.14
2024-01-17T14:56:24.312Z,96.34
2024-01-17T14:58:41.218Z,95.88
2024-01-17T15:00:58.163Z,96.22
2024-01-17T15:03:15.133Z,95.83
2024-01-17T15:05:32.140Z,96.57
2024-01-17T15:07:51.973Z,96.19
2024-01-17T15:10:13.692Z,96.79
2024-01-17T15:12:30.622Z,96.53
2024-01-17T15:14:47.560Z,96.01
2024-01-17T15:17:07.564Z,96.33
2024-01-17T15:19:24.753Z,96.42
2024-01-17T15:21:41.720Z,96.84
2024-01-17T15:23:58.904Z,96.64
2024-01-17T15:26:17.035Z,96.48
2024-01-17T15:28:34.583Z,96.66
2024-01-17T15:30:51.563Z,96.62
2024-01-17T15:33:08.549Z,96.96
2024-01-17T15:35:25.552Z,96.83
2024-01-17T15:37:42.502Z,96.68
2024-01-17T15:39:59.475Z,97.17
2024-01-17T15:42:16.431Z,96.96
2024-01-17T15:44:33.705Z,97.19
2024-01-17T15:46:50.695Z,96.83
2024-01-17T15:49:07.678Z,96.65
2024-01-17T15:51:24.767Z,97.34
2024-01-17T15:53:41.754Z,97.36
2024-01-17T15:55:58.818Z,97.47
2024-01-17T15:58:15.812Z,97.49
2024-01-17T16:00:32.980Z,97.40
2024-01-17T16:02:50.556Z,97.37
2024-01-17T16:05:07.711Z,97.34
2024-01-17T16:07:24.883Z,97.92
2024-01-17T16:09:41.810Z,97.73
2024-01-17T16:11:58.859Z,97.79
2024-01-17T16:14:15.834Z,97.78
2024-01-17T16:16:32.749Z,97.81
2024-01-17T16:18:49.780Z,98.02
2024-01-17T16:21:06.973Z,97.73
2024-01-17T16:23:23.970Z,98.03
2024-01-17T16:25:40.878Z,98.04
2024-01-17T16:27:58.272Z,98.43
2024-01-17T16:30:15.217Z,98.39
2024-01-17T16:32:32.392Z,98.20
2024-01-17T16:34:49.336Z,98.38
2024-01-17T16:37:06.317Z,98.65
2024-01-17T16:39:23.313Z,98.15
2024-01-17T16:41:40.931Z,98.53
2024-01-17T16:43:57.950Z,98.25
2024-01-17T16:46:14.887Z,98.72
2024-01-17T16:48:31.983Z,98.51
2024-01-17T16:50:49.046Z,98.83
2024-01-17T16:53:05.994Z,98.59
2024-01-17T16:55:22.889Z,98.40
2024-01-17T16:57:39.824Z,98.77
2024-01-17T16:59:56.862Z,98.81
2024-01-17T17:02:13.810Z,98.78
2024-01-17T17:04:30.878Z,98.84
2024-01-17T17:06:47.859Z,99.01
2024-01-17T17:09:04.943Z,98.90
2024-01-17T17:11:21.888Z,99.33
2024-01-17T17:13:38.885Z,99.09
2024-01-17T17:15:55.784Z,98.54
2024-01-17T17:18:12.902Z,99.18
2024-01-17T17:20:29.846Z,99.04
2024-01-17T17:22:46.735Z,99.06
2024-01-17T17:25:03.721Z,98.96
2024-01-17T17:27:20.799Z,99.38
2024-01-17T17:29:37.763Z,99.40
2024-01-17T17:31:54.685Z,99.87
2024-01-17T17:34:11.843Z,100.00
2024-01-17T17:36:29.234Z,99.91
2024-01-17T17:38:46.234Z,100.00
2024-01-17T17:41:03.210Z,100.00
2024-01-17T17:43:20.093Z,100.00
2024-01-17T17:45:37.094Z,100.00
2024-01-17T17:47:54.190Z,100.00
2024-01-17T17:50:11.135Z,100.00
2024-01-17T17:52:28.024Z,100.00
2024-01-17T17:54:44.999Z,100.00
2024-01-17T17:57:01.965Z,100.00
2024-01-17T17:59:18.861Z,100.00
2024-01-17T18:01:35.780Z,100.00
2024-01-17T18:03:52.808Z,100.00
2024-01-17T18:06:09.862Z,100.00
2024-01-17T18:08:26.809Z,100.00
2024-01-17T18:10:43.713Z,100.00
2024-01-17T18:13:00.694Z,100.00
2024-01-17T18:15:17.589Z,100.00
2024-01-17T18:17:34.578Z,100.00
2024-01-17T18:19:51.602Z,100.00
2024-01-17T18:22:08.573Z,100.00
2024-01-17T18:24:25.539Z,100.00
2024-01-17T18:26:42.615Z,100.00
2024-01-17T19:53:37.802Z,100.00
2024-01-17T19:55:55.153Z,100.00
2024-01-17T19:58:12.083Z,100.00
2024-01-17T20:00:29.473Z,100.00
2024-01-17T20:02:46.954Z,100.00
2024-01-17T20:05:05.240Z,100.00
2024-01-17T20:07:22.593Z,100.00
2024-01-17T20:09:39.724Z,100.00
2024-01-17T20:11:56.729Z,100.00
2024-01-17T20:14:14.085Z,100.00
2024-01-17T20:16:31.446Z,100.00
2024-01-17T20:18:48.833Z,100.00
2024-01-17T20:21:07.237Z,100.00
2024-01-17T20:23:24.233Z,100.00
2024-01-17T20:25:41.321Z,100.00
2024-01-17T20:27:58.630Z,100.00
2024-01-17T20:30:16.038Z,100.00
2024-01-17T20:32:33.151Z,100.00
2024-01-17T20:34:50.211Z,100.00
2024-01-17T20:37:07.259Z,100.00
2024-01-17T20:39:24.708Z,100.00
2024-01-17T20:41:41.722Z,100.00
2024-01-17T20:43:59.685Z,100.00
2024-01-17T20:46:17.106Z,100.00
2024-01-17T20:48:34.389Z,100.00
2024-01-17T20:50:51.857Z,100.00
2024-01-17T20:53:09.278Z,100.00
2024-01-17T20:55:26.295Z,100.00
2024-01-17T20:57:43.708Z,100.00
2024-01-17T21:00:01.409Z,100.00
2024-01-17T21:02:18.788Z,100.00
2024-01-17T21:04:35.843Z,100.00
2024-01-17T21:06:53.265Z,100.00
2024-01-17T21:09:10.256Z,100.00
2024-01-17T21:11:27.281Z,100.00
2024-01-17T21:13:44.202Z,100.00
2024-01-17T21:16:01.282Z,100.00
2024-01-17T21:18:18.873Z,100.00
2024-01-17T21:20:36.791Z,100.00
2024-01-17T21:22:58.936Z,100.00
2024-01-17T21:25:16.621Z,100.00
2024-01-17T21:27:34.628Z,100.00
2024-01-17T21:29:52.302Z,100.00
2024-01-17T21:32:09.268Z,100.00
2024-01-17T21:34:26.311Z,100.00
2024-01-17T21:36:43.336Z,100.00
2024-01-17T21:39:00.449Z,100.00
2024-01-17T21:41:18.759Z,100.00
2024-01-17T21:43:36.142Z,100.00
2024-01-17T21:45:53.138Z,100.00
2024-01-17T21:48:10.584Z,100.00
2024-01-17T21:50:27.615Z,100.00
2024-01-17T21:52:44.917Z,100.00
2024-01-17T21:55:01.887Z,100.00
2024-01-17T21:57:19.311Z,100.00
2024-01-17T21:59:36.303Z,100.00
2024-01-17T22:01:53.663Z,100.00
2024-01-17T22:04:10.964Z,100.00
2024-01-17T22:06:28.011Z,100.00
2024-01-17T22:08:52.527Z,100.00
2024-01-17T22:11:16.014Z,100.00
2024-01-17T22:13:33.358Z,100.00
2024-01-17T22:15:50.303Z,100.00
2024-01-17T22:18:07.756Z,100.00
2024-01-17T22:20:25.195Z,100.00
2024-01-17T22:22:43.556Z,100.00
2024-01-17T22:25:00.548Z,100.00
2024-01-17T22:27:17.992Z,100.00
2024-01-17T22:29:35.326Z,100.00
2024-01-17T22:31:52.381Z,100.00
2024-01-17T22:34:10.945Z,100.00
2024-01-17T22:36:28.311Z,100.00
2024-01-17T22:38:45.393Z,100.00
2024-01-17T22:41:02.522Z,100.00
2024-01-17T22:43:19.492Z,100.00
2024-01-17T22:45:36.475Z,100.00
2024-01-17T22:47:54.044Z,100.00
2024-01-17T22:50:11.589Z,100.00
2024-01-17T22:52:28.584Z,100.00
2024-01-17T22:54:45.592Z,100.00
2024-01-17T22:57:02.964Z,100.00
2024-01-17T22:59:19.960Z,100.00
2024-01-17T23:01:37.161Z,100.00
2024-01-17T23:03:54.550Z,100.00
2024-01-17T23:06:12.902Z,100.00
2024-01-17T23:08:30.368Z,100.00
2024-01-17T23:10:47.350Z,100.00
2024-01-17T23:13:04.742Z,100.00
2024-01-17T23:15:22.026Z,100.00
2024-01-17T23:17:39.733Z,100.00
2024-01-17T23:19:57.899Z,100.00
2024-01-17T23:22:15.201Z,100.00
2024-01-17T23:24:32.730Z,99.87
2024-01-17T23:26:49.801Z,99.68
2024-01-17T23:29:06.998Z,99.66
2024-01-17T23:31:23.944Z,99.70
2024-01-17T23:33:41.132Z,99.72
2024-01-17T23:35:59.652Z,99.63
2024-01-17T23:38:16.753Z,99.42
2024-01-17T23:40:33.742Z,100.00
2024-01-17T23:42:51.279Z,99.62
2024-01-17T23:45:08.889Z,99.48
2024-01-17T23:47:25.965Z,99.60
2024-01-17T23:49:43.140Z,99.24
2024-01-17T23:52:03.313Z,99.68
2024-01-17T23:54:20.776Z,99.79
2024-01-17T23:56:37.868Z,99.50
2024-01-17T23:58:54.753Z,99.69
